Sign-in with your pilot id or email, or register

ICAO: LYPG Name / Country: Podgorica / Montenegro
Latitude: 42.3594 Longitude: 19.2519
Total Arrivals:
Strict Standards: Non-static method AirportData::getarrflights() should not be called statically, assuming $this from incompatible context in /var/www/customers/vh-7192/web/home/phpvms/core/templates/airport_info.tpl on line 18
5
Total Departures:
Strict Standards: Non-static method AirportData::getdeptflights() should not be called statically, assuming $this from incompatible context in /var/www/customers/vh-7192/web/home/phpvms/core/templates/airport_info.tpl on line 21
2
Latest Arrival: MTA334 (LHBP-LYPG) Tibor Berces Latest Departure: MTA335 (LYPG-LHBP) Tibor Berces
Metar: LYPG 172230Z VRB02KT CAVOK 19/14 Q1015 NOSIG
More info

Charts for LYPG


NOTAM


Warning: file_get_contents(http://api.vateud.net/notams/LYPG.json): failed to open stream: Redirection limit reached, aborting in /var/www/customers/vh-7192/web/home/phpvms/core/common/NOTAMSData.class.php on line 18

Warning: Invalid argument supplied for foreach() in /var/www/customers/vh-7192/web/home/phpvms/core/common/NOTAMSData.class.php on line 22

Podgorica